createdAt,value
2023-04-03T00:00:35.608Z,58.70
2023-04-03T00:03:03.546Z,58.78
2023-04-03T00:05:30.972Z,57.86
2023-04-03T00:07:58.302Z,57.43
2023-04-03T00:10:25.959Z,55.89
2023-04-03T00:12:53.339Z,55.40
2023-04-03T00:15:20.759Z,56.99
2023-04-03T00:17:48.382Z,56.55
2023-04-03T00:20:16.376Z,56.38
2023-04-03T00:22:43.723Z,55.47
2023-04-03T00:25:11.359Z,56.22
2023-04-03T00:27:39.225Z,57.54
2023-04-03T00:30:07.868Z,58.39
2023-04-03T00:32:35.556Z,56.99
2023-04-03T00:35:03.240Z,57.77
2023-04-03T00:37:30.594Z,59.13
2023-04-03T00:39:58.246Z,56.05
2023-04-03T00:42:25.606Z,57.53
2023-04-03T00:44:58.956Z,57.01
2023-04-03T00:47:27.144Z,57.28
2023-04-03T00:49:54.485Z,56.95
2023-04-03T00:52:23.616Z,56.60
2023-04-03T00:54:51.488Z,57.86
2023-04-03T00:57:18.856Z,55.39
2023-04-03T00:59:49.603Z,56.65
2023-04-03T01:02:17.339Z,56.37
2023-04-03T01:04:44.721Z,56.79
2023-04-03T01:07:20.956Z,55.83
2023-04-03T01:09:48.960Z,56.74
2023-04-03T01:12:28.676Z,56.27
2023-04-03T01:15:07.559Z,55.82
2023-04-03T01:17:38.979Z,55.53
2023-04-03T01:20:37.879Z,56.54
2023-04-03T01:23:12.112Z,57.56
2023-04-03T01:25:47.455Z,57.02
2023-04-03T01:28:37.174Z,56.20
2023-04-03T01:31:13.837Z,55.45
2023-04-03T01:33:41.717Z,56.02
2023-04-03T01:36:09.439Z,56.28
2023-04-03T01:38:37.054Z,54.80
2023-04-03T01:41:04.430Z,55.87
2023-04-03T01:43:32.200Z,57.33
2023-04-03T01:45:59.779Z,56.79
2023-04-03T01:48:27.174Z,55.95
2023-04-03T01:50:55.320Z,56.41
2023-04-03T01:53:22.798Z,57.75
2023-04-03T01:55:50.376Z,56.26
2023-04-03T01:58:18.049Z,57.68
2023-04-03T02:00:45.672Z,57.17
2023-04-03T02:03:13.316Z,57.34
2023-04-03T02:05:40.885Z,57.69
2023-04-03T02:08:08.421Z,58.28
2023-04-03T02:10:36.382Z,56.27
2023-04-03T02:13:03.830Z,57.82
2023-04-03T02:15:31.942Z,58.19
2023-04-03T02:17:59.572Z,57.79
2023-04-03T02:20:27.525Z,58.01
2023-04-03T02:22:54.907Z,58.62
2023-04-03T02:25:22.540Z,58.72
2023-04-03T02:27:49.933Z,57.83
2023-04-03T02:30:17.344Z,58.76
2023-04-03T02:32:45.152Z,57.35
2023-04-03T02:35:12.618Z,59.42
2023-04-03T02:37:40.132Z,58.98
2023-04-03T02:40:09.186Z,58.89
2023-04-03T02:42:37.107Z,58.63
2023-04-03T02:45:04.829Z,58.56
2023-04-03T02:47:32.492Z,58.26
2023-04-03T02:49:59.956Z,59.31
2023-04-03T02:52:27.301Z,59.67
2023-04-03T02:54:55.055Z,59.14
2023-04-03T02:57:22.649Z,59.35
2023-04-03T02:59:50.065Z,60.44
2023-04-03T03:02:17.670Z,60.77
2023-04-03T03:04:45.052Z,61.12
2023-04-03T03:07:12.403Z,60.21
2023-04-03T03:09:40.012Z,61.46
2023-04-03T03:12:07.377Z,61.09
2023-04-03T03:14:34.714Z,59.74
2023-04-03T03:17:02.377Z,61.22
2023-04-03T03:19:29.752Z,60.43
2023-04-03T03:21:58.018Z,60.34
2023-04-03T03:24:25.870Z,62.43
2023-04-03T03:26:53.176Z,62.24
2023-04-03T03:29:21.062Z,62.03
2023-04-03T03:31:48.854Z,62.53
2023-04-03T03:34:16.256Z,62.60
2023-04-03T03:36:43.591Z,62.84
2023-04-03T03:39:11.235Z,61.68
2023-04-03T03:41:38.591Z,60.78
2023-04-03T03:44:06.403Z,61.37
2023-04-03T03:46:34.183Z,62.92
2023-04-03T03:49:01.563Z,61.94
2023-04-03T03:51:29.088Z,59.81
2023-04-03T03:53:57.801Z,61.45
2023-04-03T03:56:25.164Z,60.38
2023-04-03T03:58:53.483Z,59.33
2023-04-03T04:01:23.330Z,59.97
2023-04-03T04:03:51.142Z,58.46
2023-04-03T04:06:18.894Z,58.84
2023-04-03T04:08:46.471Z,58.61
2023-04-03T04:11:14.336Z,59.40
2023-04-03T04:13:41.856Z,60.84
2023-04-03T04:16:09.695Z,62.55
2023-04-03T04:18:37.339Z,61.80
2023-04-03T04:21:04.729Z,60.83
2023-04-03T04:23:32.279Z,60.98
2023-04-03T04:26:00.332Z,60.27
2023-04-03T04:28:28.435Z,59.43
2023-04-03T04:30:57.570Z,59.20
2023-04-03T04:33:26.538Z,59.52
2023-04-03T04:35:54.411Z,60.04
2023-04-03T04:38:22.596Z,61.03
2023-04-03T04:40:51.975Z,61.43
2023-04-03T04:43:19.696Z,62.53
2023-04-03T04:45:47.805Z,62.74
2023-04-03T04:48:17.529Z,61.62
2023-04-03T04:50:44.944Z,61.61
2023-04-03T04:53:12.386Z,63.52
2023-04-03T04:55:40.105Z,63.06
2023-04-03T04:58:07.806Z,62.56
2023-04-03T05:00:36.280Z,61.90
2023-04-03T05:03:04.187Z,63.85
2023-04-03T05:05:32.119Z,63.77
2023-04-03T05:07:59.579Z,63.70
2023-04-03T05:10:27.179Z,63.69
2023-04-03T05:12:54.562Z,64.53
2023-04-03T05:15:21.973Z,63.48
2023-04-03T05:17:49.879Z,64.34
2023-04-03T05:20:17.843Z,62.58
2023-04-03T05:22:46.178Z,62.78
2023-04-03T05:25:14.430Z,61.52
2023-04-03T05:27:42.666Z,60.93
2023-04-03T05:30:10.246Z,63.50
2023-04-03T05:32:38.486Z,62.82
2023-04-03T05:35:07.480Z,61.83
2023-04-03T05:37:35.544Z,63.93
2023-04-03T05:40:05.345Z,62.08
2023-04-03T05:42:33.066Z,61.93
2023-04-03T05:45:00.983Z,62.56
2023-04-03T05:47:28.648Z,62.95
2023-04-03T05:49:56.553Z,62.31
2023-04-03T05:52:28.883Z,60.78
2023-04-03T05:54:56.735Z,63.07
2023-04-03T05:57:24.662Z,61.66
2023-04-03T05:59:52.334Z,61.46
2023-04-03T06:02:21.772Z,61.55
2023-04-03T06:04:49.950Z,60.45
2023-04-03T06:07:24.461Z,60.28
2023-04-03T06:09:54.992Z,60.06
2023-04-03T06:12:22.787Z,60.60
2023-04-03T06:14:50.151Z,61.13
2023-04-03T06:17:18.996Z,60.66
2023-04-03T06:19:46.601Z,60.13
2023-04-03T06:22:14.254Z,60.02
2023-04-03T06:24:41.896Z,59.77
2023-04-03T06:27:10.795Z,59.62
2023-04-03T06:29:38.178Z,60.18
2023-04-03T06:32:05.926Z,59.16
2023-04-03T06:34:33.383Z,59.51
2023-04-03T06:37:00.962Z,58.29
2023-04-03T06:39:28.606Z,58.30
2023-04-03T06:41:56.234Z,59.01
2023-04-03T06:44:26.477Z,58.55
2023-04-03T06:46:55.318Z,59.56
2023-04-03T06:49:22.804Z,59.78
2023-04-03T06:51:50.583Z,60.09
2023-04-03T06:54:18.250Z,58.71
2023-04-03T06:56:45.833Z,56.67
2023-04-03T06:59:14.526Z,56.96
2023-04-03T07:01:42.931Z,56.72
2023-04-03T07:04:10.440Z,55.83
2023-04-03T07:06:37.864Z,55.86
2023-04-03T07:09:08.652Z,56.13
2023-04-03T07:11:37.202Z,54.67
2023-04-03T07:14:04.838Z,53.05
2023-04-03T07:16:32.232Z,53.45
2023-04-03T07:18:59.815Z,51.73
2023-04-03T07:21:27.477Z,51.63
2023-04-03T07:23:55.337Z,52.49
2023-04-03T07:26:23.282Z,51.65
2023-04-03T07:28:51.013Z,51.15
2023-04-03T07:31:19.421Z,49.31
2023-04-03T07:33:46.888Z,50.03
2023-04-03T07:36:16.906Z,49.31
2023-04-03T07:38:44.322Z,49.33
2023-04-03T07:41:19.099Z,49.76
2023-04-03T07:43:47.565Z,50.61
2023-04-03T07:46:15.120Z,52.10
2023-04-03T07:48:42.699Z,49.08
2023-04-03T07:51:10.699Z,48.29
2023-04-03T07:53:38.064Z,48.00
2023-04-03T07:56:05.864Z,47.94
2023-04-03T07:58:33.962Z,45.29
2023-04-03T08:01:01.538Z,46.62
2023-04-03T08:03:29.421Z,43.86
2023-04-03T08:06:03.232Z,43.89
2023-04-03T08:08:31.016Z,44.23
2023-04-03T08:10:58.960Z,43.63
2023-04-03T08:13:26.584Z,44.32
2023-04-03T08:15:54.213Z,44.82
2023-04-03T08:18:22.800Z,44.41
2023-04-03T08:20:50.159Z,44.53
2023-04-03T08:23:19.871Z,43.75
2023-04-03T08:25:47.580Z,44.65
2023-04-03T08:28:14.938Z,42.65
2023-04-03T08:30:43.386Z,44.78
2023-04-03T08:33:11.343Z,43.99
2023-04-03T08:35:42.438Z,43.80
2023-04-03T08:38:10.737Z,45.08
2023-04-03T08:40:38.543Z,43.93
2023-04-03T08:43:31.359Z,41.60
2023-04-03T08:45:59.063Z,43.73
2023-04-03T08:48:33.989Z,44.57
2023-04-03T08:51:12.176Z,42.16
2023-04-03T08:53:41.681Z,40.97
2023-04-03T08:56:10.388Z,42.42
2023-04-03T08:59:09.300Z,42.01
2023-04-03T09:01:38.519Z,42.11
2023-04-03T09:04:14.073Z,40.29
2023-04-03T09:06:43.933Z,40.90
2023-04-03T09:09:34.660Z,41.11
2023-04-03T09:12:10.079Z,40.63
2023-04-03T09:14:58.470Z,38.58
2023-04-03T09:17:40.598Z,39.87
2023-04-03T09:20:46.129Z,38.87
2023-04-03T09:23:15.170Z,38.31
2023-04-03T09:25:42.635Z,37.05
2023-04-03T09:28:11.064Z,37.64
2023-04-03T09:30:39.477Z,39.20
2023-04-03T09:33:08.261Z,38.21
2023-04-03T09:35:47.394Z,37.01
2023-04-03T09:38:18.472Z,36.23
2023-04-03T09:40:52.763Z,35.28
2023-04-03T09:43:23.743Z,35.86
2023-04-03T09:45:51.747Z,33.85
2023-04-03T09:48:21.176Z,36.46
2023-04-03T09:50:51.780Z,36.72
2023-04-03T09:53:40.888Z,37.21
2023-04-03T09:56:17.282Z,36.56
2023-04-03T09:58:51.859Z,34.37
2023-04-03T10:01:32.881Z,32.69
2023-04-03T10:04:13.694Z,33.80
2023-04-03T10:06:48.943Z,33.87
2023-04-03T10:09:28.862Z,33.91
2023-04-03T10:12:06.923Z,33.43
2023-04-03T10:14:35.764Z,33.59
2023-04-03T10:17:26.778Z,34.11
2023-04-03T10:20:18.680Z,35.39
2023-04-03T10:22:52.338Z,36.72
2023-04-03T10:25:30.434Z,37.78
2023-04-03T10:28:08.420Z,36.80
2023-04-03T10:30:58.331Z,39.27
2023-04-03T10:33:50.394Z,38.54
2023-04-03T10:36:46.268Z,37.97
2023-04-03T10:39:41.085Z,39.20
2023-04-03T10:42:17.636Z,37.81
2023-04-03T10:45:16.607Z,38.68
2023-04-03T10:48:14.398Z,39.13
2023-04-03T10:51:02.699Z,39.13
2023-04-03T10:53:38.835Z,38.01
2023-04-03T10:56:18.709Z,39.20
2023-04-03T10:58:49.475Z,39.01
2023-04-03T11:01:22.048Z,40.76
2023-04-03T11:03:52.851Z,40.31
2023-04-03T11:06:20.891Z,38.84
2023-04-03T11:08:58.097Z,40.11
2023-04-03T11:11:28.233Z,39.12
2023-04-03T11:14:24.513Z,40.48
2023-04-03T11:17:11.190Z,39.75
2023-04-03T11:19:44.741Z,39.69
2023-04-03T11:22:15.027Z,39.38
2023-04-03T11:24:43.414Z,40.70
2023-04-03T11:27:17.761Z,39.28
2023-04-03T11:29:46.492Z,38.13
2023-04-03T11:32:38.037Z,37.89
2023-04-03T11:35:06.251Z,38.60
2023-04-03T11:37:38.862Z,38.29
2023-04-03T11:40:33.329Z,37.44
2023-04-03T11:43:00.536Z,37.12
2023-04-03T11:45:35.817Z,36.49
2023-04-03T11:48:20.775Z,36.83
2023-04-03T11:50:51.386Z,36.50
2023-04-03T11:53:29.345Z,36.69
2023-04-03T11:56:01.355Z,36.83
2023-04-03T11:58:31.010Z,36.10
2023-04-03T12:01:40.137Z,35.85
2023-04-03T12:04:10.068Z,37.36
2023-04-03T12:06:37.559Z,37.50
2023-04-03T12:09:16.861Z,36.65
2023-04-03T12:11:44.503Z,36.64
2023-04-03T12:14:16.617Z,37.20
2023-04-03T12:16:46.877Z,36.29
2023-04-03T12:22:13.188Z,37.30
2023-04-03T12:24:45.108Z,37.62
2023-04-03T12:27:25.675Z,36.50
2023-04-03T12:30:05.314Z,36.49
2023-04-03T12:32:43.134Z,36.22
2023-04-03T12:35:26.105Z,36.18
2023-04-03T12:38:15.575Z,36.95
2023-04-03T12:40:42.856Z,36.02
2023-04-03T12:43:23.581Z,36.33
2023-04-03T12:45:53.634Z,36.10
2023-04-03T12:48:25.545Z,36.21
2023-04-03T12:50:52.939Z,36.45
2023-04-03T12:53:23.478Z,35.33
2023-04-03T12:56:29.552Z,37.13
2023-04-03T12:59:24.671Z,37.06
2023-04-03T13:01:59.208Z,35.93
2023-04-03T13:04:28.416Z,35.67
2023-04-03T13:06:55.848Z,36.13
2023-04-03T13:09:28.739Z,34.72
2023-04-03T13:12:12.364Z,34.19
2023-04-03T13:14:39.790Z,34.03
2023-04-03T13:17:12.998Z,34.85
2023-04-03T13:19:40.707Z,32.48
2023-04-03T13:22:34.005Z,33.77
2023-04-03T13:25:04.076Z,34.16
2023-04-03T13:27:31.834Z,34.13
2023-04-03T13:30:00.494Z,33.51
2023-04-03T13:32:28.515Z,33.13
2023-04-03T13:34:58.284Z,33.52
2023-04-03T13:37:29.904Z,34.77
2023-04-03T13:40:13.040Z,33.94
2023-04-03T13:42:42.256Z,34.82
2023-04-03T13:45:18.161Z,33.88
2023-04-03T13:47:46.319Z,32.56
2023-04-03T13:50:26.316Z,33.25
2023-04-03T13:53:04.588Z,33.29
2023-04-03T13:55:34.553Z,32.95
2023-04-03T13:58:08.601Z,33.17
2023-04-03T14:00:51.521Z,33.48
2023-04-03T14:03:29.532Z,36.01
2023-04-03T14:05:57.192Z,35.58
2023-04-03T14:08:36.096Z,37.26
2023-04-03T14:11:21.816Z,37.62
2023-04-03T14:13:49.528Z,37.02
2023-04-03T14:16:19.179Z,38.32
2023-04-03T14:18:47.274Z,37.20
2023-04-03T14:21:16.105Z,37.12
2023-04-03T14:23:43.518Z,36.99
2023-04-03T14:26:17.453Z,37.69
2023-04-03T14:28:46.171Z,38.48
2023-04-03T14:31:14.032Z,38.43
2023-04-03T14:33:41.634Z,38.52
2023-04-03T14:36:16.998Z,38.94
2023-04-03T14:38:44.758Z,39.14
2023-04-03T14:41:17.157Z,39.10
2023-04-03T14:43:45.443Z,38.94
2023-04-03T14:46:18.708Z,38.45
2023-04-03T14:48:46.134Z,38.72
2023-04-03T14:51:14.120Z,38.26
2023-04-03T14:53:42.960Z,38.29
2023-04-03T14:56:18.605Z,38.95
2023-04-03T14:58:50.275Z,38.87
2023-04-03T15:01:18.506Z,38.63
2023-04-03T15:03:46.273Z,38.50
2023-04-03T15:06:14.272Z,39.06
2023-04-03T15:08:43.077Z,37.76
2023-04-03T15:11:11.278Z,37.98
2023-04-03T15:13:39.172Z,38.39
2023-04-03T15:16:07.306Z,37.91
2023-04-03T15:18:38.621Z,37.76
2023-04-03T15:21:06.337Z,38.08
2023-04-03T15:23:33.704Z,38.18
2023-04-03T15:26:01.338Z,38.06
2023-04-03T15:28:33.815Z,37.74
2023-04-03T15:31:01.433Z,38.44
2023-04-03T15:33:28.969Z,38.50
2023-04-03T15:36:06.466Z,38.22
2023-04-03T15:38:35.758Z,37.80
2023-04-03T15:41:03.137Z,38.07
2023-04-03T15:43:30.671Z,37.47
2023-04-03T15:45:58.535Z,37.71
2023-04-03T15:48:26.142Z,38.04
2023-04-03T15:50:53.464Z,38.17
2023-04-03T15:53:21.102Z,38.07
2023-04-03T15:55:48.498Z,37.87
2023-04-03T15:58:15.928Z,37.66
2023-04-03T16:00:43.538Z,37.77
2023-04-03T16:03:13.596Z,38.42
2023-04-03T16:05:41.205Z,37.91
2023-04-03T16:08:08.850Z,37.03
2023-04-03T16:10:37.280Z,37.56
2023-04-03T16:13:04.990Z,36.72
2023-04-03T16:15:32.592Z,36.86
2023-04-03T16:18:00.362Z,36.75
2023-04-03T16:20:27.725Z,37.00
2023-04-03T16:22:55.123Z,37.51
2023-04-03T16:25:22.730Z,37.38
2023-04-03T16:27:50.098Z,38.47
2023-04-03T16:30:17.543Z,37.46
2023-04-03T16:32:45.374Z,37.29
2023-04-03T16:35:12.831Z,37.33
2023-04-03T16:37:40.581Z,38.21
2023-04-03T16:40:08.735Z,37.00
2023-04-03T16:42:37.366Z,37.93
2023-04-03T16:45:06.947Z,37.42
2023-04-03T16:47:34.621Z,37.37
2023-04-03T16:50:02.197Z,37.75
2023-04-03T16:52:29.649Z,36.31
2023-04-03T16:54:59.300Z,36.36
2023-04-03T16:57:26.818Z,36.89
2023-04-03T16:59:55.206Z,36.73
2023-04-03T17:02:25.426Z,37.04
2023-04-03T17:04:53.758Z,36.97
2023-04-03T17:07:21.590Z,36.53
2023-04-03T17:09:49.239Z,36.09
2023-04-03T17:12:17.005Z,36.53
2023-04-03T17:14:44.402Z,36.49
2023-04-03T17:17:12.031Z,36.66
2023-04-03T17:19:39.403Z,35.66
2023-04-03T17:22:07.661Z,36.56
2023-04-03T17:24:35.413Z,37.46
2023-04-03T17:27:03.092Z,36.97
2023-04-03T17:29:30.438Z,39.25
2023-04-03T17:31:58.097Z,37.21
2023-04-03T17:34:25.418Z,38.76
2023-04-03T17:36:52.885Z,37.20
2023-04-03T17:39:20.789Z,38.59
2023-04-03T17:41:49.598Z,38.61
2023-04-03T17:44:16.968Z,38.45
2023-04-03T17:46:44.778Z,39.74
2023-04-03T17:49:15.039Z,39.15
2023-04-03T17:51:42.598Z,38.54
2023-04-03T17:54:10.235Z,37.56
2023-04-03T17:56:37.570Z,38.46
2023-04-03T17:59:05.006Z,41.13
2023-04-03T18:01:33.952Z,39.80
2023-04-03T18:04:03.160Z,40.05
2023-04-03T18:06:36.909Z,39.38
2023-04-03T18:09:09.959Z,42.86
2023-04-03T18:11:37.311Z,41.86
2023-04-03T18:14:05.299Z,40.10
2023-04-03T18:16:32.784Z,39.23
2023-04-03T18:19:17.612Z,39.21
2023-04-03T18:21:47.931Z,40.13
2023-04-03T18:24:17.026Z,40.01
2023-04-03T18:26:46.534Z,39.47
2023-04-03T18:29:14.173Z,39.61
2023-04-03T18:31:42.113Z,39.34
2023-04-03T18:34:09.476Z,38.53
2023-04-03T18:36:37.091Z,40.01
2023-04-03T18:39:04.462Z,40.24
2023-04-03T18:41:32.628Z,38.68
2023-04-03T18:44:01.502Z,39.08
2023-04-03T18:46:28.881Z,40.20
2023-04-03T18:48:56.237Z,38.31
2023-04-03T18:51:23.828Z,38.58
2023-04-03T18:53:51.221Z,38.59
2023-04-03T18:56:18.597Z,37.72
2023-04-03T18:58:46.220Z,37.67
2023-04-03T19:01:14.227Z,38.63
2023-04-03T19:03:41.786Z,38.73
2023-04-03T19:06:09.453Z,39.56
2023-04-03T19:08:36.874Z,40.85
2023-04-03T19:11:04.359Z,40.55
2023-04-03T19:13:32.660Z,38.91
2023-04-03T19:16:00.168Z,39.08
2023-04-03T19:18:27.613Z,39.10
2023-04-03T19:20:56.338Z,39.04
2023-04-03T19:23:24.110Z,39.62
2023-04-03T19:26:01.886Z,39.03
2023-04-03T19:28:29.596Z,39.42
2023-04-03T19:30:58.242Z,39.99
2023-04-03T19:33:25.699Z,38.49
2023-04-03T19:35:53.341Z,38.50
2023-04-03T19:38:20.733Z,37.60
2023-04-03T19:40:48.082Z,36.72
2023-04-03T19:43:16.258Z,37.09
2023-04-03T19:45:44.265Z,35.73
2023-04-03T19:48:11.830Z,37.30
2023-04-03T19:50:39.575Z,36.34
2023-04-03T19:53:08.677Z,37.23
2023-04-03T19:55:36.488Z,39.62
2023-04-03T19:58:04.286Z,37.74
2023-04-03T20:00:31.745Z,37.12
2023-04-03T20:02:59.485Z,36.45
2023-04-03T20:05:26.910Z,36.70
2023-04-03T20:07:54.269Z,37.57
2023-04-03T20:10:21.852Z,35.95
2023-04-03T20:12:50.321Z,37.85
2023-04-03T20:15:17.917Z,37.59
2023-04-03T20:17:45.626Z,37.39
2023-04-03T20:20:13.641Z,38.20
2023-04-03T20:22:41.097Z,36.00
2023-04-03T20:25:10.610Z,36.76
2023-04-03T20:27:39.584Z,36.81
2023-04-03T20:30:08.903Z,39.91
2023-04-03T20:32:36.530Z,37.40
2023-04-03T20:35:04.893Z,36.53
2023-04-03T20:37:32.620Z,37.17
2023-04-03T20:40:00.498Z,37.93
2023-04-03T20:42:27.909Z,36.45
2023-04-03T20:44:57.260Z,35.67
2023-04-03T20:47:25.112Z,36.36
2023-04-03T20:49:53.709Z,36.41
2023-04-03T20:52:21.379Z,39.32
2023-04-03T20:54:49.003Z,36.95
2023-04-03T20:57:16.348Z,36.15
2023-04-03T20:59:43.782Z,35.93
2023-04-03T21:02:12.636Z,35.52
2023-04-03T21:04:46.566Z,36.13
2023-04-03T21:07:52.293Z,36.48
2023-04-03T21:10:57.169Z,37.03
2023-04-03T21:14:02.567Z,34.80
2023-04-03T21:16:30.352Z,35.91
2023-04-03T21:19:15.865Z,35.88
2023-04-03T21:21:45.873Z,36.78
2023-04-03T21:24:13.987Z,36.59
2023-04-03T21:26:41.699Z,35.41
2023-04-03T21:29:09.039Z,35.07
2023-04-03T21:31:59.605Z,34.95
2023-04-03T21:34:28.554Z,34.16
2023-04-03T21:37:06.320Z,36.46
2023-04-03T21:39:33.770Z,36.38
2023-04-03T21:42:01.873Z,35.51
2023-04-03T21:44:29.544Z,35.56
2023-04-03T21:46:56.918Z,36.49
2023-04-03T21:49:24.913Z,36.43
2023-04-03T21:51:52.600Z,35.92
2023-04-03T21:54:20.498Z,36.70
2023-04-03T21:56:49.414Z,35.96
2023-04-03T21:59:16.945Z,35.35
2023-04-03T22:01:44.395Z,36.05
2023-04-03T22:04:12.559Z,36.32
2023-04-03T22:06:39.986Z,36.18
2023-04-03T22:09:08.022Z,36.62
2023-04-03T22:11:38.112Z,36.10
2023-04-03T22:14:05.430Z,36.29
2023-04-03T22:16:32.847Z,37.33
2023-04-03T22:19:01.416Z,36.34
2023-04-03T22:21:28.828Z,37.40
2023-04-03T22:23:56.170Z,38.72
2023-04-03T22:26:23.777Z,35.14
2023-04-03T22:28:51.176Z,35.66
2023-04-03T22:31:19.266Z,36.42
2023-04-03T22:33:46.938Z,35.55
2023-04-03T22:36:14.362Z,34.34
2023-04-03T22:38:44.935Z,34.91
2023-04-03T22:41:12.632Z,34.57
2023-04-03T22:43:40.274Z,36.20
2023-04-03T22:46:11.273Z,34.80
2023-04-03T22:48:42.297Z,34.57
2023-04-03T22:51:09.855Z,35.28
2023-04-03T22:53:37.371Z,35.08
2023-04-03T22:56:08.575Z,35.19
2023-04-03T22:58:35.999Z,34.35
2023-04-03T23:01:08.938Z,34.29
2023-04-03T23:03:37.020Z,35.32
2023-04-03T23:06:04.995Z,34.91
2023-04-03T23:08:34.483Z,36.35
2023-04-03T23:11:02.487Z,35.10
2023-04-03T23:13:29.985Z,34.60
2023-04-03T23:15:58.656Z,35.22
2023-04-03T23:18:26.900Z,34.97
2023-04-03T23:20:55.071Z,36.49
2023-04-03T23:23:23.563Z,34.46
2023-04-03T23:25:54.841Z,34.44
2023-04-03T23:28:22.868Z,37.27
2023-04-03T23:30:52.686Z,34.74
2023-04-03T23:33:20.373Z,35.56
2023-04-03T23:35:52.101Z,34.36
2023-04-03T23:38:19.746Z,34.46
2023-04-03T23:40:47.264Z,35.01
2023-04-03T23:43:14.643Z,35.49
2023-04-03T23:45:42.473Z,36.12
2023-04-03T23:48:09.981Z,36.74
2023-04-03T23:50:37.512Z,37.13
2023-04-03T23:53:05.443Z,36.50
2023-04-03T23:55:33.096Z,36.52
2023-04-03T23:58:00.545Z,36.48
